Flight Track Log - Related Links

Times and Time Zones

All times are in EDT time to prevent confusion due to time zone crossing. See the N62773 flight status page for this flight to view local times or setup timezone preferences in your user account.

Time Position Orientation Groundspeed Altitude Reporting Facility
EDT Latitude Longitude Course Direction KTS MPH feet Rate Location/Type
Sat 11:57:40 PM 46.3114 -87.3894 127° Southeast 97 112 2,100  Level Minneapolis Center
Sat 11:58:41 PM 46.2894 -87.3475 127° Southeast 127 146 2,500 480 Climbing Minneapolis Center
Sat 11:59:45 PM 46.2619 -87.3044 133° Southeast 133 153 3,100 484 Climbing Minneapolis Center
Sun 12:00:45 AM 46.2331 -87.2719 142° Southeast 130 150 3,500 400 Climbing Minneapolis Center
Sun 12:01:45 AM 46.2042 -87.2369 140° Southeast 133 153 3,900 397 Climbing Minneapolis Center
Sun 12:02:46 AM 46.1764 -87.2064 143° Southeast 134 154 4,300 446 Climbing Minneapolis Center
Sun 12:03:46 AM 46.1469 -87.1719 141° Southeast 134 154 4,800 446 Climbing Minneapolis Center
Sun 12:04:47 AM 46.1178 -87.1356 139° Southeast 135 155 5,200 397 Climbing Minneapolis Center
Sun 12:05:47 AM 46.0836 -87.1167 159° South 130 150 5,600 400 Climbing Minneapolis Center
Sun 12:06:47 AM 46.0553 -87.0781 137° Southeast 136 157 6,000 446 Climbing Minneapolis Center
Sun 12:07:48 AM 46.0261 -87.0458 143° Southeast 129 148 6,500 397 Climbing Minneapolis Center
Sun 12:08:48 AM 45.9989 -87.0164 143° Southeast 129 148 6,800 200 Climbing Minneapolis Center
Sun 12:09:48 AM 45.9708 -86.9778 136° Southeast 138 159 6,900 99 Climbing Minneapolis Center
Sun 12:10:49 AM 45.9433 -86.9381 135° Southeast 138 159 7,000 50 Climbing Minneapolis Center
Sun 12:11:49 AM 45.9094 -86.9092 149° Southeast 139 160 7,000 50 Level Minneapolis Center
Sun 12:12:49 AM 45.8728 -86.8794 151° Southeast 147 169 7,100 50 Climbing Minneapolis Center
Sun 12:13:50 AM 45.8411 -86.8450 143° Southeast 152 175 7,100 -50 Level Minneapolis Center
Sun 12:14:50 AM 45.8025 -86.8083 146° Southeast 162 186 7,000  Descending Minneapolis Center
Sun 12:15:50 AM 45.7628 -86.7772 151° Southeast 161 185 7,100  Climbing Minneapolis Center
Sun 12:16:50 AM 45.7314 -86.7489 148° Southeast 156 180 7,000 -99 Descending Minneapolis Center
Sun 12:17:51 AM 45.6961 -86.7156 147° Southeast 155 178 6,900  Descending Minneapolis Center
Sun 12:18:51 AM 45.6592 -86.6831 148° Southeast 155 178 7,000 50 Climbing Minneapolis Center
Sun 12:19:51 AM 45.6169 -86.6433 147° Southeast 154 177 7,000  Level Minneapolis Center
Sun 12:20:51 AM 45.5822 -86.6036 141° Southeast 156 180 7,000 -50 Level Minneapolis Center
Sun 12:21:52 AM 45.5489 -86.5650 141° Southeast 156 180 6,900  Descending Minneapolis Center
Sun 12:22:52 AM 45.5078 -86.5508 166° South 153 176 7,000 50 Climbing Minneapolis Center
Sun 12:23:52 AM 45.4697 -86.5192 150° Southeast 155 178 7,000  Level Minneapolis Center
Sun 12:24:52 AM 45.4336 -86.4853 147° Southeast 155 178 7,000  Level Minneapolis Center
Sun 12:25:53 AM 45.3989 -86.4469 142° Southeast 157 181 7,000  Level Minneapolis Center
Sun 12:26:53 AM 45.3675 -86.4039 136° Southeast 156 180 7,000  Level Minneapolis Center
Sun 12:27:53 AM 45.3322 -86.3683 145° Southeast 156 180 7,000 -50 Level Minneapolis Center
Sun 12:28:53 AM 45.2900 -86.3469 160° South 158 182 6,900 50 Descending Minneapolis Center
Sun 12:29:53 AM 45.2544 -86.3147 147° Southeast 154 177 7,100 50 Climbing Minneapolis Center
Sun 12:30:54 AM 45.2225 -86.2761 140° Southeast 150 173 7,000 -99 Descending Minneapolis Center
Sun 12:31:54 AM 45.1886 -86.2400 143° Southeast 152 175 6,900 -50 Descending Minneapolis Center
Sun 12:32:54 AM 45.1575 -86.1972 136° Southeast 154 177 6,900  Level Minneapolis Center
Sun 12:33:54 AM 45.1244 -86.1625 143° Southeast 150 173 6,900 50 Level Minneapolis Center
Sun 12:34:54 AM 45.0917 -86.1253 141° Southeast 149 171 7,000 50 Climbing Minneapolis Center
Sun 12:35:54 AM 45.0625 -86.0836 135° Southeast 149 171 7,000 -150 Level Minneapolis Center
Sun 12:36:54 AM 45.0331 -86.0389 133° Southeast 151 174 6,700 -248 Descending Minneapolis Center
Sun 12:37:55 AM 45.0025 -85.9933 133° Southeast 156 180 6,500 -298 Descending Minneapolis Center
Sun 12:38:55 AM 44.9711 -85.9519 137° Southeast 155 178 6,100 -500 Descending Minneapolis Center
Sun 12:39:55 AM 44.9350 -85.9156 144° Southeast 156 180 5,500 -650 Descending Minneapolis Center
Sun 12:40:55 AM 44.9003 -85.8847 148° Southeast 150 173 4,800 -800 Descending Minneapolis Center
Sun 12:41:55 AM 44.8653 -85.8550 149° Southeast 147 169 3,900 -700 Descending Minneapolis Center
Sun 12:42:55 AM 44.8328 -85.8256 147° Southeast 143 165 3,400 -545 Descending Minneapolis Center
Sun 12:43:56 AM 44.8028 -85.7944 144° Southeast 137 158 2,800 -590 Descending Minneapolis Center
Sun 12:45:00 AM 44.7863 -85.7401 113° Southeast  Level FlightAware Approximate
Sun 12:52:00 AM 44.7416 -85.5824 132° Southeast  Level Estimated
Sun 12:53:00 AM 44.7416 -85.5824 132° Southeast  Level Estimated
Sun 12:54:00 AM 44.7416 -85.5824 132° Southeast  Level Estimated
Sun 12:55:00 AM 44.7416 -85.5824 132° Southeast  Level Estimated
Sun 12:56:00 AM 44.7416 -85.5824 132° Southeast  Level Estimated
Sun 12:57:00 AM 44.7416 -85.5824 132° Southeast  Level Estimated

Login

Don't have an account? Register now (free) for customized features, flight alerts, and more!